Time;durP1;ratioP1;P1;durP2;ratioP2;P2;SDS_P1;SDS_P2;PMS_P1;PMS_P2;Temp;Humidity;BMP_temperature;BMP_pressure;BME280_temperature;BME280_humidity;BME280_pressure;Samples;Min_cycle;Max_cycle;Signal;HPM_P1;HPM_P2
2021/10/28 00:12:22;;;;;;;1.05;0.52;;;19.50;69.50;;;;;;5102903;28;20097;-38
2021/10/28 00:14:59;;;;;;;0.52;0.40;;;19.40;69.50;;;;;;5103132;28;20032;-37
2021/10/28 00:17:47;;;;;;;1.60;0.40;;;19.40;69.40;;;;;;5102663;28;20070;-38
2021/10/28 00:20:15;;;;;;;1.67;0.50;;;19.40;69.40;;;;;;5102454;28;20035;-38
2021/10/28 00:22:42;;;;;;;0.73;0.50;;;19.40;69.40;;;;;;5102744;28;20028;-37
2021/10/28 00:25:09;;;;;;;0.90;0.60;;;19.40;69.50;;;;;;5102758;28;20084;-38
2021/10/28 00:27:35;;;;;;;0.82;0.60;;;19.40;69.40;;;;;;5102457;28;20039;-38
2021/10/28 00:30:01;;;;;;;0.80;0.47;;;19.40;69.20;;;;;;5103040;28;20078;-38
2021/10/28 00:32:28;;;;;;;2.17;0.47;;;19.40;69.10;;;;;;5102925;28;20463;-38
2021/10/28 00:34:54;;;;;;;0.40;0.40;;;19.40;69.00;;;;;;5102487;28;20028;-38
2021/10/28 00:37:20;;;;;;;0.85;0.50;;;19.40;69.00;;;;;;5102009;28;20111;-38
2021/10/28 00:39:46;;;;;;;0.95;0.60;;;19.40;68.90;;;;;;5102669;28;20031;-38
2021/10/28 00:42:13;;;;;;;0.40;0.35;;;19.40;68.90;;;;;;5102772;28;20115;-38
2021/10/28 00:44:39;;;;;;;0.68;0.45;;;19.40;68.90;;;;;;5102648;28;20035;-38
2021/10/28 00:47:06;;;;;;;1.13;0.60;;;19.40;68.80;;;;;;5102411;28;20145;-38
2021/10/28 00:49:32;;;;;;;;;;;19.30;68.80;;;;;;5097155;28;20021;-38
2021/10/28 00:51:58;;;;;;;0.98;0.60;;;19.30;68.70;;;;;;5096500;28;19907;-38
2021/10/28 00:54:25;;;;;;;0.88;0.57;;;19.30;68.80;;;;;;5102443;28;20028;-38
2021/10/28 00:56:51;;;;;;;1.23;0.50;;;19.30;68.80;;;;;;5100899;28;20047;-38
2021/10/28 00:59:17;;;;;;;0.68;0.40;;;19.30;68.80;;;;;;5102496;28;20118;-38
2021/10/28 01:01:43;;;;;;;0.80;0.63;;;19.30;68.80;;;;;;5102474;28;20028;-38
2021/10/28 01:04:09;;;;;;;1.10;0.60;;;19.30;68.70;;;;;;5102579;28;20030;-38
2021/10/28 01:06:36;;;;;;;1.77;0.85;;;19.30;68.80;;;;;;5101891;28;20032;-38
2021/10/28 01:09:03;;;;;;;0.75;0.70;;;19.20;68.80;;;;;;5084351;28;20044;-38
2021/10/28 01:11:30;;;;;;;1.33;0.70;;;19.20;68.70;;;;;;5102390;28;20039;-38
2021/10/28 01:13:57;;;;;;;0.98;0.50;;;19.20;68.70;;;;;;5102227;28;20073;-38
2021/10/28 01:16:23;;;;;;;;;;;19.20;68.90;;;;;;5102538;28;20424;-38
2021/10/28 01:18:49;;;;;;;1.38;0.80;;;19.20;68.70;;;;;;5102471;28;19926;-38
2021/10/28 01:21:15;;;;;;;0.90;0.65;;;19.20;68.80;;;;;;5102359;28;20667;-38
2021/10/28 01:23:42;;;;;;;1.13;0.60;;;19.20;68.90;;;;;;5100809;28;20032;-38
2021/10/28 01:26:12;;;;;;;1.45;0.82;;;19.10;68.80;;;;;;5102255;28;20031;-37
2021/10/28 01:28:41;;;;;;;2.10;0.70;;;19.20;68.80;;;;;;5101947;28;20054;-38
2021/10/28 01:31:08;;;;;;;1.35;0.73;;;19.20;68.80;;;;;;5105220;28;20024;-38
2021/10/28 01:33:35;;;;;;;1.10;0.88;;;19.20;68.90;;;;;;5105861;28;20028;-38
2021/10/28 01:36:02;;;;;;;0.85;0.70;;;19.10;69.50;;;;;;5105559;28;20085;-38
2021/10/28 01:38:28;;;;;;;1.13;1.02;;;19.10;68.80;;;;;;5105667;28;20040;-38
2021/10/28 01:40:59;;;;;;;0.88;0.80;;;19.10;68.70;;;;;;5105004;28;20024;-38
2021/10/28 01:43:25;;;;;;;1.17;0.88;;;19.10;68.70;;;;;;5105656;28;20449;-38
2021/10/28 01:45:52;;;;;;;1.60;0.90;;;19.10;68.70;;;;;;5105921;28;20073;-38
2021/10/28 01:48:18;;;;;;;2.28;0.90;;;19.10;68.80;;;;;;5105369;28;20272;-38
2021/10/28 01:50:45;;;;;;;1.50;1.00;;;19.00;68.60;;;;;;5105487;28;20078;-38
2021/10/28 01:53:11;;;;;;;1.27;0.70;;;19.00;68.60;;;;;;5105717;28;20081;-38
2021/10/28 01:55:38;;;;;;;1.43;0.90;;;19.00;68.60;;;;;;5103960;28;20024;-38
2021/10/28 01:58:06;;;;;;;0.98;0.70;;;19.00;68.70;;;;;;5104971;28;20107;-38
2021/10/28 02:00:32;;;;;;;1.88;1.05;;;19.00;68.70;;;;;;5105406;28;20087;-38
2021/10/28 02:02:58;;;;;;;2.88;0.90;;;19.00;68.80;;;;;;5105217;28;20512;-38
2021/10/28 02:05:25;;;;;;;2.45;1.00;;;19.00;68.80;;;;;;5105231;28;20032;-38
2021/10/28 02:07:51;;;;;;;2.58;1.30;;;19.00;68.80;;;;;;5103580;28;20028;-38
2021/10/28 02:10:18;;;;;;;2.13;1.08;;;18.90;68.80;;;;;;5104980;28;20044;-38
2021/10/28 02:12:46;;;;;;;2.20;1.25;;;18.90;68.80;;;;;;5104992;28;20028;-38
2021/10/28 02:15:13;;;;;;;1.63;1.17;;;18.90;68.80;;;;;;5104939;28;20036;-38
2021/10/28 02:17:40;;;;;;;1.42;1.13;;;18.90;68.80;;;;;;5104685;28;20043;-38
2021/10/28 02:20:07;;;;;;;2.53;1.33;;;18.90;68.80;;;;;;5105167;28;20054;-37
2021/10/28 02:22:34;;;;;;;2.33;1.30;;;18.90;68.80;;;;;;5104903;28;20039;-38
2021/10/28 02:25:00;;;;;;;2.03;1.42;;;18.90;68.80;;;;;;5104864;28;20032;-38
2021/10/28 02:27:26;;;;;;;1.77;1.00;;;18.90;68.80;;;;;;5104646;28;20019;-38
2021/10/28 02:29:52;;;;;;;2.15;1.20;;;18.90;68.80;;;;;;5104728;28;20115;-38
2021/10/28 02:32:18;;;;;;;2.42;1.10;;;18.90;68.80;;;;;;5104740;28;20024;-38
2021/10/28 02:34:45;;;;;;;2.83;1.40;;;18.80;68.80;;;;;;5103424;28;20024;-38
2021/10/28 02:37:12;;;;;;;2.60;1.45;;;18.80;68.90;;;;;;5104379;28;20039;-38
2021/10/28 02:39:38;;;;;;;2.85;1.27;;;18.80;68.90;;;;;;5104400;28;20040;-38
2021/10/28 02:42:05;;;;;;;3.15;1.63;;;18.80;68.90;;;;;;5103844;28;20061;-38
2021/10/28 02:44:31;;;;;;;1.60;1.23;;;18.80;69.10;;;;;;5104171;28;20020;-38
2021/10/28 02:46:57;;;;;;;2.72;1.38;;;18.80;69.00;;;;;;5104567;28;20036;-38
2021/10/28 02:49:25;;;;;;;2.97;1.50;;;18.70;68.90;;;;;;5104388;28;20028;-38
2021/10/28 02:51:51;;;;;;;2.25;1.42;;;18.70;69.00;;;;;;5104454;28;20058;-38
2021/10/28 02:54:18;;;;;;;3.75;1.60;;;18.70;69.00;;;;;;5102893;28;20052;-38
2021/10/28 02:56:45;;;;;;;3.17;1.70;;;18.70;69.10;;;;;;5100185;28;20059;-38
2021/10/28 02:59:11;;;;;;;3.25;1.50;;;18.70;69.20;;;;;;5089218;28;20477;-38
2021/10/28 03:01:44;;;;;;;3.38;1.77;;;18.70;69.20;;;;;;5083938;28;20036;-37
2021/10/28 03:04:11;;;;;;;3.60;1.70;;;18.70;69.10;;;;;;5083916;28;20024;-38
2021/10/28 03:06:39;;;;;;;3.92;1.85;;;18.70;69.20;;;;;;5098434;28;20656;-39
2021/10/28 03:09:07;;;;;;;2.25;1.45;;;18.70;69.20;;;;;;5103814;28;20113;-38
2021/10/28 03:11:34;;;;;;;3.85;1.80;;;18.70;69.10;;;;;;5104132;28;20040;-38
2021/10/28 03:14:00;;;;;;;2.30;1.38;;;18.60;69.10;;;;;;5103734;28;20021;-38
2021/10/28 03:16:34;;;;;;;2.90;1.63;;;18.60;69.10;;;;;;5103479;28;20044;-38
2021/10/28 03:27:24;;;;;;;2.13;1.60;;;18.60;69.30;;;;;;5040698;28;20056;-38
2021/10/28 03:29:50;;;;;;;2.45;1.40;;;18.60;69.40;;;;;;5040663;28;20049;-38
2021/10/28 03:32:18;;;;;;;2.30;1.60;;;18.50;69.30;;;;;;5040731;28;20033;-38
2021/10/28 03:34:46;;;;;;;5.90;1.67;;;18.50;69.30;;;;;;5040401;28;20086;-38
2021/10/28 03:37:17;;;;;;;3.05;1.52;;;18.50;69.40;;;;;;5050400;28;20084;-38
2021/10/28 03:40:06;;;;;;;3.08;1.52;;;18.50;69.30;;;;;;5060465;28;20036;-38
2021/10/28 03:48:10;;;;;;;2.40;1.70;;;18.50;69.50;;;;;;5020316;28;20030;-38
2021/10/28 03:53:46;;;;;;;3.13;1.80;;;18.40;69.50;;;;;;5048530;28;20021;-45
2021/10/28 04:20:32;;;;;;;2.42;1.30;;;18.30;69.80;;;;;;5102945;28;20016;-37
2021/10/28 04:30:25;;;;;;;2.22;1.35;;;18.30;69.90;;;;;;5102696;28;20058;-37
2021/10/28 04:32:52;;;;;;;2.83;1.45;;;18.20;69.80;;;;;;5102780;28;20047;-37
2021/10/28 04:35:18;;;;;;;2.75;1.70;;;18.20;69.90;;;;;;5095833;28;20032;-37
2021/10/28 04:37:45;;;;;;;2.93;1.50;;;18.20;69.90;;;;;;5102379;28;20047;-38
2021/10/28 04:40:12;;;;;;;2.25;1.35;;;18.20;69.90;;;;;;5102737;28;20027;-37
2021/10/28 04:42:38;;;;;;;2.30;1.60;;;18.20;70.00;;;;;;5102591;28;20118;-38
2021/10/28 04:45:05;;;;;;;3.17;1.40;;;18.20;70.00;;;;;;5102693;28;20022;-38
2021/10/28 04:47:31;;;;;;;2.13;1.40;;;18.20;69.90;;;;;;5101000;28;20035;-38
2021/10/28 04:49:58;;;;;;;2.65;1.40;;;18.20;70.00;;;;;;5100713;28;20080;-37
2021/10/28 04:52:24;;;;;;;2.40;1.60;;;18.10;70.00;;;;;;5101664;28;20032;-38
2021/10/28 04:54:50;;;;;;;3.20;1.70;;;18.20;70.10;;;;;;5101258;28;20028;-38
2021/10/28 04:57:17;;;;;;;2.63;1.58;;;18.10;70.10;;;;;;5102012;28;20394;-38
2021/10/28 04:59:43;;;;;;;3.05;1.60;;;18.10;70.10;;;;;;5102397;28;20084;-38
2021/10/28 05:02:09;;;;;;;2.72;1.70;;;18.10;70.20;;;;;;5102512;28;20036;-38
2021/10/28 05:04:35;;;;;;;1.85;1.40;;;18.10;70.20;;;;;;5103043;28;20031;-38
2021/10/28 05:07:02;;;;;;;2.20;1.30;;;18.10;70.30;;;;;;5104407;28;20092;-38
2021/10/28 05:09:29;;;;;;;2.42;1.40;;;18.10;70.30;;;;;;5106189;28;20048;-38
2021/10/28 05:11:56;;;;;;;4.07;1.50;;;18.00;70.30;;;;;;5106252;28;20059;-38
2021/10/28 05:14:23;;;;;;;1.70;1.30;;;18.00;70.30;;;;;;5105039;28;20497;-38
2021/10/28 05:16:55;;;;;;;3.30;1.40;;;18.00;70.30;;;;;;5106177;28;20075;-41
2021/10/28 05:19:22;;;;;;;2.88;1.50;;;18.00;70.30;;;;;;5106192;28;20091;-38
2021/10/28 05:21:48;;;;;;;2.20;1.50;;;18.00;70.30;;;;;;5106161;28;20048;-38
2021/10/28 05:24:14;;;;;;;1.73;1.20;;;18.00;70.40;;;;;;5106001;28;20275;-38
2021/10/28 05:26:40;;;;;;;2.40;1.38;;;18.00;70.30;;;;;;5104213;28;20544;-38
2021/10/28 05:29:07;;;;;;;2.72;1.45;;;18.00;70.30;;;;;;5105984;28;20016;-37
2021/10/28 05:31:33;;;;;;;2.67;1.35;;;18.00;70.40;;;;;;5106040;28;20036;-37
2021/10/28 05:33:59;;;;;;;2.25;1.50;;;18.00;70.40;;;;;;5105902;28;20031;-38
2021/10/28 05:36:26;;;;;;;1.90;1.25;;;18.00;70.50;;;;;;5105023;28;20035;-38
2021/10/28 05:38:53;;;;;;;1.95;1.30;;;18.00;70.50;;;;;;5105726;28;20028;-38
2021/10/28 05:41:19;;;;;;;1.55;1.10;;;17.90;70.40;;;;;;5105964;28;20485;-38
2021/10/28 05:43:45;;;;;;;2.63;1.35;;;17.90;70.60;;;;;;5105876;28;20031;-38
2021/10/28 05:46:11;;;;;;;2.40;1.40;;;17.90;70.60;;;;;;5105220;28;20019;-38
2021/10/28 05:48:37;;;;;;;1.98;1.42;;;17.90;70.60;;;;;;5105501;28;20016;-38
2021/10/28 05:51:04;;;;;;;2.75;1.60;;;17.90;70.60;;;;;;5105656;28;20492;-38
2021/10/28 05:53:31;;;;;;;3.00;1.40;;;17.90;70.60;;;;;;5105657;28;20016;-38
2021/10/28 05:55:57;;;;;;;1.90;1.42;;;17.90;70.70;;;;;;5105550;28;20047;-38
2021/10/28 05:58:23;;;;;;;2.13;1.30;;;17.90;70.70;;;;;;5104995;28;20422;-39
2021/10/28 06:00:50;;;;;;;2.25;1.33;;;17.90;70.70;;;;;;5105044;28;20024;-38
2021/10/28 06:03:16;;;;;;;3.20;1.10;;;17.90;70.70;;;;;;5105400;28;20047;-37
2021/10/28 06:05:42;;;;;;;2.38;1.30;;;17.80;70.70;;;;;;5098228;28;20035;-38
2021/10/28 06:08:08;;;;;;;1.30;1.10;;;17.80;70.70;;;;;;5105038;28;20020;-38
2021/10/28 06:10:34;;;;;;;1.92;1.20;;;17.80;70.60;;;;;;5104953;28;20040;-38
2021/10/28 06:13:06;;;;;;;1.85;1.52;;;17.80;70.70;;;;;;5105158;28;20028;-38
2021/10/28 06:15:35;;;;;;;2.67;1.40;;;17.80;70.80;;;;;;5104986;28;20035;-38
2021/10/28 06:20:43;;;;;;;3.35;1.10;;;17.80;70.80;;;;;;5105140;28;20020;-38
2021/10/28 06:23:09;;;;;;;2.88;1.40;;;17.80;70.80;;;;;;5105195;28;20123;-38
2021/10/28 06:25:35;;;;;;;4.20;1.52;;;17.80;70.90;;;;;;5104886;28;20039;-38
2021/10/28 06:28:02;;;;;;;2.40;1.17;;;17.80;70.90;;;;;;5104537;28;20020;-38
2021/10/28 06:30:29;;;;;;;2.47;1.23;;;17.70;70.80;;;;;;5104904;28;20058;-38
2021/10/28 06:32:58;;;;;;;1.85;1.20;;;17.70;70.80;;;;;;5104802;28;20087;-38
2021/10/28 06:35:25;;;;;;;1.63;1.30;;;17.70;70.90;;;;;;5104228;28;20036;-37
2021/10/28 06:37:52;;;;;;;2.33;1.08;;;17.70;70.80;;;;;;5104570;28;20452;-38
2021/10/28 06:40:20;;;;;;;1.27;1.05;;;17.70;71.00;;;;;;5104615;28;20032;-38
2021/10/28 06:42:46;;;;;;;1.83;1.10;;;17.70;70.90;;;;;;5104313;28;20039;-38
2021/10/28 06:45:13;;;;;;;1.20;1.00;;;17.70;71.00;;;;;;5101516;28;20032;-38
2021/10/28 06:47:40;;;;;;;1.25;1.10;;;17.70;70.90;;;;;;5104405;28;20157;-38
2021/10/28 06:50:10;;;;;;;1.27;1.17;;;17.60;71.00;;;;;;5104511;28;20101;-38
2021/10/28 07:03:10;;;;;;;1.38;1.10;;;17.60;71.00;;;;;;5104182;28;20039;-38
2021/10/28 07:05:37;;;;;;;2.33;1.30;;;17.60;71.00;;;;;;5103852;28;20024;-38
2021/10/28 07:08:03;;;;;;;1.80;1.38;;;17.60;71.00;;;;;;5103931;28;20040;-38
2021/10/28 07:10:31;;;;;;;1.83;1.17;;;17.60;71.10;;;;;;5104034;28;20044;-38
2021/10/28 07:13:08;;;;;;;1.70;1.15;;;17.60;71.20;;;;;;5103863;28;20645;-38
2021/10/28 07:26:35;;;;;;;1.48;1.00;;;17.60;71.30;;;;;;5102541;28;20412;-38
2021/10/28 07:34:07;;;;;;;1.80;1.13;;;17.50;71.30;;;;;;5103587;28;20031;-37
2021/10/28 07:36:44;;;;;;;2.25;1.23;;;17.50;71.30;;;;;;5102841;28;20084;-39
2021/10/28 07:39:28;;;;;;;1.27;1.08;;;17.50;71.30;;;;;;5103628;28;20032;-38
2021/10/28 08:20:09;;;;;;;1.33;0.95;;;17.40;71.70;;;;;;5039689;28;20024;-38
2021/10/28 08:22:40;;;;;;;2.75;1.00;;;17.40;71.70;;;;;;5021190;28;20034;-38
2021/10/28 08:28:55;;;;;;;1.65;1.00;;;17.40;71.70;;;;;;5020133;28;20040;-38
2021/10/28 08:30:47;;;;;;;1.20;1.05;;;17.40;71.70;;;;;;5010913;28;20780;-39
2021/10/28 08:33:14;;;;;;;1.10;1.00;;;17.40;71.70;;;;;;5026284;28;20040;-38
2021/10/28 08:35:55;;;;;;;1.95;1.10;;;17.40;71.90;;;;;;5033363;28;20045;-38
2021/10/28 08:38:21;;;;;;;1.42;0.90;;;17.40;71.90;;;;;;5005059;28;20037;-38
2021/10/28 08:40:50;;;;;;;1.05;0.95;;;17.40;71.80;;;;;;5005963;28;20026;-38
2021/10/28 08:43:17;;;;;;;1.92;1.20;;;17.40;72.00;;;;;;5045699;28;20088;-39
2021/10/28 08:45:44;;;;;;;1.33;1.15;;;17.40;71.90;;;;;;5068391;28;20095;-38
2021/10/28 08:48:10;;;;;;;1.35;1.10;;;17.40;72.00;;;;;;5086713;28;20091;-38
2021/10/28 08:50:42;;;;;;;1.10;0.93;;;17.30;71.90;;;;;;5087513;28;20024;-38
2021/10/28 08:53:32;;;;;;;1.10;0.90;;;17.30;71.90;;;;;;5106612;28;20067;-38
2021/10/28 08:56:00;;;;;;;1.75;1.20;;;17.30;72.00;;;;;;5106277;28;20547;-38
2021/10/28 08:58:49;;;;;;;1.48;1.20;;;17.30;72.00;;;;;;5106568;28;20031;-38
2021/10/28 09:26:47;;;;;;;1.55;1.10;;;17.30;72.10;;;;;;5105911;28;20039;-38
2021/10/28 09:32:01;;;;;;;1.25;1.10;;;17.30;72.20;;;;;;5085360;28;20541;-38
2021/10/28 09:34:53;;;;;;;1.30;1.10;;;17.20;72.20;;;;;;5085775;28;20029;-38
2021/10/28 09:46:39;;;;;;;1.60;0.85;;;17.20;72.30;;;;;;5105694;28;20472;-38
2021/10/28 09:52:13;;;;;;;2.40;0.95;;;17.20;72.30;;;;;;5105178;28;20032;-38
2021/10/28 09:55:02;;;;;;;1.30;0.88;;;17.20;72.30;;;;;;5105474;28;20032;-38
2021/10/28 10:00:15;;;;;;;1.00;0.90;;;17.20;72.40;;;;;;5105273;28;20059;-39
2021/10/28 10:02:50;;;;;;;0.88;0.70;;;17.20;72.30;;;;;;5105337;28;20032;-38
2021/10/28 10:07:50;;;;;;;1.00;0.90;;;17.20;72.40;;;;;;5105448;28;20107;-38
2021/10/28 10:10:20;;;;;;;1.80;1.00;;;17.20;72.30;;;;;;5104874;28;20066;-38
2021/10/28 10:12:47;;;;;;;0.93;0.90;;;17.20;72.40;;;;;;5105275;28;20058;-38
2021/10/28 10:15:15;;;;;;;1.17;1.00;;;17.20;72.40;;;;;;5104989;28;20076;-38
2021/10/28 10:17:42;;;;;;;0.98;0.90;;;17.20;72.50;;;;;;5105021;28;20058;-38
2021/10/28 10:20:10;;;;;;;1.00;0.90;;;17.20;72.50;;;;;;5104899;28;20062;-40
2021/10/28 10:23:18;;;;;;;1.00;0.80;;;17.20;72.50;;;;;;5103686;28;20119;-38
2021/10/28 10:25:50;;;;;;;1.48;0.90;;;17.20;72.50;;;;;;5101490;28;20020;-38
2021/10/28 12:46:15;;;;;;;0.93;0.80;;;17.00;73.40;;;;;;5082116;28;20194;-38
2021/10/28 12:49:04;;;;;;;2.28;0.90;;;17.00;73.40;;;;;;5082127;28;20385;-38
2021/10/28 14:24:30;;;;;;;0.60;0.60;;;16.90;73.90;;;;;;5002356;28;20044;-38
2021/10/28 15:28:36;;;;;;;0.88;0.70;;;16.90;74.30;;;;;;5083240;28;20027;-38
2021/10/28 15:31:29;;;;;;;0.70;0.50;;;16.90;74.40;;;;;;5083307;28;20029;-38
2021/10/28 15:39:08;;;;;;;0.68;0.60;;;16.90;74.40;;;;;;5103490;28;20484;-38
2021/10/28 16:00:33;;;;;;;0.90;0.70;;;16.80;74.30;;;;;;5103072;28;20024;-38
2021/10/28 16:22:13;;;;;;;0.88;0.60;;;16.80;74.50;;;;;;5102715;28;20500;-38
2021/10/28 16:24:39;;;;;;;0.63;0.57;;;16.80;74.50;;;;;;5102962;28;20028;-38
2021/10/28 16:27:06;;;;;;;1.42;0.70;;;16.80;74.50;;;;;;5101137;28;20028;-38
2021/10/28 16:29:32;;;;;;;0.63;0.45;;;16.80;74.60;;;;;;5100607;28;20047;-38
2021/10/28 16:31:59;;;;;;;1.10;0.65;;;16.80;74.60;;;;;;5101123;28;20088;-38
2021/10/28 16:34:26;;;;;;;1.80;0.90;;;16.80;74.50;;;;;;5102753;28;20553;-39
2021/10/28 16:36:53;;;;;;;0.93;0.68;;;16.80;74.50;;;;;;5101776;28;20044;-38
2021/10/28 16:39:19;;;;;;;0.98;0.70;;;16.80;74.50;;;;;;5102541;28;20054;-38
2021/10/28 16:41:47;;;;;;;0.60;0.60;;;16.80;74.50;;;;;;5102623;28;20044;-38
2021/10/28 16:44:14;;;;;;;0.90;0.80;;;16.80;74.60;;;;;;5102402;28;20020;-38
2021/10/28 16:46:40;;;;;;;0.93;0.60;;;16.80;74.60;;;;;;5102293;28;20081;-38
2021/10/28 16:49:07;;;;;;;0.70;0.70;;;16.80;74.60;;;;;;5102656;28;20048;-38
2021/10/28 16:51:34;;;;;;;1.65;0.70;;;16.80;74.70;;;;;;5102226;28;20032;-38
2021/10/28 16:54:00;;;;;;;0.77;0.50;;;16.80;74.60;;;;;;5102526;28;20087;-38
2021/10/28 16:56:26;;;;;;;1.50;0.70;;;16.80;74.60;;;;;;5102046;28;20031;-38
2021/10/28 16:58:52;;;;;;;2.35;0.80;;;16.80;74.60;;;;;;5102414;28;20039;-38
2021/10/28 17:01:18;;;;;;;0.75;0.60;;;16.80;74.60;;;;;;5104092;28;20028;-38
2021/10/28 17:03:44;;;;;;;1.35;0.60;;;16.80;74.60;;;;;;5106524;28;20028;-38
2021/10/28 17:06:14;;;;;;;1.15;0.52;;;16.80;74.60;;;;;;5105566;28;20020;-39
2021/10/28 17:08:41;;;;;;;0.70;0.60;;;16.80;74.70;;;;;;5106445;28;20028;-38
2021/10/28 17:11:07;;;;;;;0.70;0.70;;;16.80;74.60;;;;;;5104968;28;20055;-38
2021/10/28 17:13:33;;;;;;;0.77;0.70;;;16.80;74.70;;;;;;5105073;28;20047;-38
2021/10/28 17:16:00;;;;;;;0.80;0.60;;;16.80;74.60;;;;;;5106253;28;20024;-38
2021/10/28 17:18:26;;;;;;;0.70;0.60;;;16.80;74.70;;;;;;5105753;28;20272;-38
2021/10/28 17:20:55;;;;;;;0.75;0.60;;;16.80;74.70;;;;;;5106159;28;20049;-38
2021/10/28 17:23:30;;;;;;;0.80;0.60;;;16.80;74.70;;;;;;5106061;28;20070;-38
2021/10/28 17:25:57;;;;;;;0.57;0.50;;;16.80;74.70;;;;;;5105924;28;20035;-38
2021/10/28 17:28:23;;;;;;;1.58;0.70;;;16.80;74.70;;;;;;5105711;28;20087;-38
2021/10/28 17:30:50;;;;;;;0.70;0.65;;;16.80;74.70;;;;;;5105924;28;20091;-38
2021/10/28 17:33:16;;;;;;;1.10;0.50;;;16.80;74.80;;;;;;5105737;28;20051;-38
2021/10/28 17:35:42;;;;;;;0.65;0.60;;;16.80;74.70;;;;;;5105552;28;20028;-38
2021/10/28 17:38:08;;;;;;;0.63;0.52;;;16.80;74.80;;;;;;5105741;28;20448;-37
2021/10/28 17:40:34;;;;;;;0.60;0.52;;;16.80;74.80;;;;;;5105818;28;20091;-38
2021/10/28 17:43:01;;;;;;;0.75;0.57;;;16.80;74.80;;;;;;5105722;28;20119;-38
2021/10/28 17:45:29;;;;;;;0.52;0.50;;;16.80;74.90;;;;;;5104711;28;20769;-38
2021/10/28 17:47:56;;;;;;;0.30;0.30;;;16.80;75.00;;;;;;5105309;28;20031;-38
2021/10/28 17:50:22;;;;;;;1.85;0.50;;;16.80;74.80;;;;;;5105638;28;20361;-38
2021/10/28 17:52:49;;;;;;;0.80;0.68;;;16.80;74.80;;;;;;5105587;28;20028;-38
2021/10/28 17:55:15;;;;;;;0.88;0.50;;;16.80;74.90;;;;;;5105380;28;20064;-38
2021/10/28 17:57:43;;;;;;;0.60;0.55;;;16.80;74.80;;;;;;5088767;28;20032;-38
2021/10/28 18:00:12;;;;;;;0.63;0.40;;;16.80;74.80;;;;;;5088057;28;20074;-38
2021/10/28 18:02:38;;;;;;;0.85;0.50;;;16.80;74.90;;;;;;5097828;28;20040;-38
2021/10/28 18:05:05;;;;;;;0.57;0.40;;;16.80;74.90;;;;;;5085324;28;20028;-38
2021/10/28 18:07:31;;;;;;;0.80;0.60;;;16.80;74.80;;;;;;5105076;28;20040;-38
2021/10/28 18:09:59;;;;;;;0.75;0.40;;;16.80;74.80;;;;;;5105160;28;20522;-38
2021/10/28 18:12:28;;;;;;;0.73;0.57;;;16.80;74.80;;;;;;5103976;28;20112;-38
2021/10/28 18:14:54;;;;;;;0.77;0.50;;;16.80;74.80;;;;;;5105110;28;20074;-38
2021/10/28 18:17:21;;;;;;;0.50;0.45;;;16.80;74.80;;;;;;5104667;28;20039;-38
2021/10/28 18:19:47;;;;;;;1.37;0.50;;;16.80;74.90;;;;;;5105193;28;20696;-38
2021/10/28 18:22:14;;;;;;;0.50;0.47;;;16.80;74.90;;;;;;5104929;28;20303;-38
2021/10/28 18:24:41;;;;;;;0.55;0.40;;;16.80;74.90;;;;;;5105211;28;20028;-38
2021/10/28 18:27:08;;;;;;;0.30;0.30;;;16.80;75.00;;;;;;5104640;28;20095;-38
2021/10/28 18:29:37;;;;;;;0.70;0.57;;;16.90;75.00;;;;;;5104878;28;20481;-38
2021/10/28 18:32:04;;;;;;;0.40;0.30;;;16.80;75.00;;;;;;5104415;28;20047;-38
2021/10/28 18:34:30;;;;;;;0.60;0.60;;;16.80;75.00;;;;;;5103350;28;20028;-38
2021/10/28 18:36:56;;;;;;;0.70;0.40;;;16.80;75.00;;;;;;5092034;28;20092;-38
2021/10/28 18:39:23;;;;;;;0.50;0.40;;;16.80;75.00;;;;;;5084428;28;20028;-38
2021/10/28 18:41:51;;;;;;;0.55;0.50;;;16.90;75.10;;;;;;5084563;28;20569;-38
2021/10/28 18:44:17;;;;;;;0.63;0.50;;;16.80;75.00;;;;;;5084359;28;20032;-38
2021/10/28 18:46:43;;;;;;;0.40;0.40;;;16.80;75.10;;;;;;5083887;28;20020;-38
2021/10/28 18:49:10;;;;;;;0.40;0.40;;;16.90;75.10;;;;;;5084507;28;20082;-38
2021/10/28 18:51:38;;;;;;;0.50;0.40;;;16.90;75.10;;;;;;5095107;28;20028;-38
2021/10/28 18:54:05;;;;;;;0.38;0.38;;;16.90;75.20;;;;;;5104378;28;20058;-38
2021/10/28 18:56:31;;;;;;;0.40;0.40;;;16.90;75.20;;;;;;5103904;28;20031;-38
2021/10/28 18:58:57;;;;;;;0.83;0.40;;;16.90;75.20;;;;;;5104204;28;20039;-38
2021/10/28 19:01:25;;;;;;;0.28;0.28;;;16.90;75.20;;;;;;5104072;28;20036;-38
2021/10/28 19:03:53;;;;;;;0.40;0.30;;;16.90;75.20;;;;;;5104379;28;20046;-37
2021/10/28 19:06:19;;;;;;;0.63;0.40;;;16.90;75.20;;;;;;5103710;28;20054;-38
2021/10/28 19:08:46;;;;;;;0.30;0.30;;;16.90;75.30;;;;;;5104304;28;20028;-38
2021/10/28 19:11:12;;;;;;;0.40;0.40;;;16.90;75.30;;;;;;5103970;28;20040;-38
2021/10/28 19:13:41;;;;;;;0.35;0.35;;;16.90;75.40;;;;;;5104048;28;20031;-38
2021/10/28 19:16:07;;;;;;;0.52;0.32;;;16.90;75.30;;;;;;5103659;28;20056;-38
2021/10/28 19:18:33;;;;;;;0.57;0.50;;;16.90;75.30;;;;;;5103970;28;20028;-37
2021/10/28 19:21:00;;;;;;;0.38;0.38;;;16.90;75.30;;;;;;5103917;28;20020;-38
2021/10/28 19:23:26;;;;;;;0.70;0.30;;;16.90;75.40;;;;;;5103595;28;20020;-37
2021/10/28 19:25:53;;;;;;;0.45;0.30;;;16.90;75.30;;;;;;5103705;28;20020;-38
2021/10/28 19:28:19;;;;;;;0.40;0.40;;;16.90;75.40;;;;;;5083158;28;20052;-38
2021/10/28 19:30:52;;;;;;;0.30;0.30;;;16.90;75.30;;;;;;5083284;28;20060;-38
2021/10/28 19:33:21;;;;;;;0.45;0.30;;;16.90;75.40;;;;;;5083238;28;20029;-38
2021/10/28 19:35:53;;;;;;;0.50;0.35;;;16.90;75.30;;;;;;5100875;28;20032;-38
2021/10/28 19:46:21;;;;;;;0.20;0.20;;;16.90;75.40;;;;;;5103370;28;20035;-38
2021/10/28 19:48:47;;;;;;;;;;;16.90;75.40;;;;;;5103471;28;20039;-38
2021/10/28 19:51:14;;;;;;;0.30;0.20;;;16.90;75.40;;;;;;5103344;28;19911;-38
2021/10/28 19:53:40;;;;;;;0.40;0.35;;;16.80;75.30;;;;;;5103407;28;20024;-38
2021/10/28 19:56:18;;;;;;;0.63;0.30;;;16.90;75.40;;;;;;5103316;28;20044;-38
2021/10/28 19:58:48;;;;;;;;;;;16.90;75.40;;;;;;5103484;28;20046;-38
2021/10/28 20:22:16;;;;;;;0.22;0.22;;;16.90;75.40;;;;;;5102752;28;20042;-38
2021/10/28 20:24:42;;;;;;;0.57;0.30;;;16.90;75.40;;;;;;5101618;28;20448;-38
2021/10/28 20:27:09;;;;;;;0.88;0.43;;;16.90;75.50;;;;;;5102326;28;20020;-38
2021/10/28 20:29:35;;;;;;;0.80;0.40;;;16.90;75.40;;;;;;5102656;28;20038;-38
2021/10/28 20:32:01;;;;;;;0.60;0.20;;;16.90;75.50;;;;;;5102646;28;20024;-38
2021/10/28 20:37:06;;;;;;;0.22;0.22;;;16.90;75.50;;;;;;5101724;28;20036;-38
2021/10/28 20:39:38;;;;;;;0.30;0.30;;;16.90;75.50;;;;;;5101565;28;20032;-38
2021/10/28 20:42:05;;;;;;;0.30;0.30;;;16.90;75.50;;;;;;5100673;28;20087;-37
2021/10/28 20:44:31;;;;;;;0.30;0.30;;;16.90;75.50;;;;;;5102565;28;20012;-38
2021/10/28 20:46:57;;;;;;;0.40;0.30;;;16.90;75.50;;;;;;5102688;28;20036;-37
2021/10/28 20:49:24;;;;;;;0.20;0.20;;;16.90;75.60;;;;;;5102531;28;20027;-38
2021/10/28 20:51:51;;;;;;;0.38;0.30;;;16.90;75.50;;;;;;5102509;28;20054;-38
2021/10/28 20:54:17;;;;;;;0.30;0.30;;;16.90;75.50;;;;;;5102639;28;20123;-38
2021/10/28 20:56:43;;;;;;;0.30;0.30;;;16.90;75.50;;;;;;5102243;28;20536;-37
2021/10/28 20:59:09;;;;;;;0.40;0.30;;;16.90;75.50;;;;;;5101968;28;20039;-38
2021/10/28 21:01:36;;;;;;;0.32;0.30;;;16.90;75.40;;;;;;5087596;28;20472;-38
2021/10/28 21:04:02;;;;;;;0.35;0.20;;;16.90;75.50;;;;;;5082235;28;20028;-37
2021/10/28 21:06:28;;;;;;;0.20;0.20;;;16.90;75.50;;;;;;5094145;28;20020;-37
2021/10/28 21:08:57;;;;;;;0.43;0.30;;;16.90;75.50;;;;;;5102173;28;20055;-39
2021/10/28 21:11:24;;;;;;;0.20;0.20;;;16.90;75.60;;;;;;5102241;28;20131;-38
2021/10/28 21:13:51;;;;;;;0.20;0.20;;;17.00;75.70;;;;;;5102189;28;20041;-38
2021/10/28 21:16:18;;;;;;;0.38;0.28;;;17.00;75.70;;;;;;5100860;28;20044;-38
2021/10/28 21:18:45;;;;;;;0.30;0.30;;;17.00;75.80;;;;;;5102129;28;20028;-37
2021/10/28 21:21:11;;;;;;;0.75;0.30;;;17.00;75.80;;;;;;5102222;28;20032;-37
2021/10/28 21:23:37;;;;;;;0.57;0.30;;;17.00;75.70;;;;;;5100747;28;20028;-38
2021/10/28 21:26:03;;;;;;;0.20;0.20;;;17.00;75.70;;;;;;5100623;28;20032;-37
2021/10/28 21:28:30;;;;;;;1.05;0.40;;;17.00;75.70;;;;;;5101727;28;20026;-38
2021/10/28 21:30:56;;;;;;;0.30;0.30;;;17.00;75.70;;;;;;5102067;28;20039;-38
2021/10/28 21:33:22;;;;;;;0.30;0.22;;;17.00;75.70;;;;;;5102102;28;20056;-38
2021/10/28 21:35:48;;;;;;;0.40;0.20;;;17.00;75.60;;;;;;5102107;28;20032;-37
2021/10/28 21:38:15;;;;;;;0.30;0.30;;;17.00;75.60;;;;;;5101535;28;20061;-38
2021/10/28 21:40:41;;;;;;;0.57;0.40;;;17.00;75.70;;;;;;5102148;28;20021;-37
2021/10/28 21:43:07;;;;;;;0.30;0.27;;;17.00;75.70;;;;;;5102140;28;20032;-38
2021/10/28 21:45:34;;;;;;;0.38;0.30;;;17.00;75.70;;;;;;5100584;28;20040;-38
2021/10/28 21:48:00;;;;;;;0.30;0.30;;;17.00;75.70;;;;;;5104796;28;20106;-38
2021/10/28 21:50:27;;;;;;;1.52;0.30;;;17.00;75.70;;;;;;5105208;28;20097;-37
2021/10/28 21:52:57;;;;;;;0.38;0.38;;;17.00;75.70;;;;;;5105424;28;20039;-37
2021/10/28 21:55:32;;;;;;;0.57;0.40;;;17.00;75.70;;;;;;5105573;28;20071;-38